Terminal Aerodrome Forecast
Issued by NWS Billings, MT

Home | Current Version | Previous Version | Text Only | Print | Product List | Glossary On
Versions: 1 2 3 4 5 6 7 8 9 10 11 12 13
000
FTUS45 KBYZ 270521
TAFMLS
TAF
KMLS 270521Z 2706/2806 10006KT P6SM VCTS SCT100CB
     FM270900 16006KT P6SM FEW100
     FM271600 23010KT P6SM BKN120
     FM280300 15007KT P6SM SCT120=

USA.gov is the U.S. government's official web portal to all federal, state and local government web resources and services.